Beltdiep — PBYF — position and weather

sailwx.info

Track history (hours):
 
Tides and Currents Weather Stations Pressure Air Temp Water Temp Dewpoint Dewpoint Depression Visibility Wind Speed Wind Dir Waves Ship Positions

Beltdiep

Last reported at 2016-Jan-28 02:23 UTC. Time now 2016-Feb-12 12:04 UTC.
Position N 36°26' E 015°12'.
Warning: this ship's position is 15 days out of date.

Length 107 m; draft 5.6 m.

Type: Cargo ship. MMSI: 246671000.

Date/timePositionNaut miles runAvg speedWind from/ knotsBaromVisibWave heightAir tempDewpointWater temp
2016-Jan-28 02:23N 36°26' E 015°12'910.6
2016-Jan-28 01:33N 36°26' E 015°01'1110.6
2016-Jan-28 00:33N 36°27' E 014°48'1110.7
2016-Jan-27 23:33N 36°29' E 014°35'1111.1
2016-Jan-27 22:31N 36°33' E 014°21'1010.4
2016-Jan-27 21:33N 36°35' E 014°09'1110.9
2016-Jan-27 20:33N 36°38' E 013°56'1110.8
2016-Jan-27 19:33N 36°41' E 013°43'1010.5
2016-Jan-27 18:33N 36°45' E 013°31'1110.6
2016-Jan-27 17:33N 36°48' E 013°18'1110.5
2016-Jan-27 16:33N 36°51' E 013°05'1010.5
2016-Jan-27 15:33N 36°54' E 012°53'1110.7
2016-Jan-27 14:34N 36°58' E 012°41'340 9.7
2016-Jan-26 03:25N 37°19' E 005°35'213 9.8
2016-Jan-25 05:33N 36°50' E 001°10'1110.5
2016-Jan-25 04:33N 36°48' E 000°58'1111.4
2016-Jan-25 03:33N 36°47' E 000°43'1310.9
2016-Jan-25 02:22N 36°45' E 000°28'910.4
2016-Jan-25 01:29N 36°43' E 000°16'1010.2
2016-Jan-25 00:32N 36°41' E 000°05'2510.3
2016-Jan-24 22:04N 36°36' W 000°27'610.5
2016-Jan-24 21:30N 36°35' W 000°34'1010.3
2016-Jan-24 20:33N 36°34' W 000°46'1110.2
2016-Jan-24 19:27N 36°32' W 000°60'1410.6
2016-Jan-24 18:08N 36°30' W 001°17'3810.7
2016-Jan-24 14:32N 36°23' W 002°04'1111.1
2016-Jan-24 13:33N 36°21' W 002°17'14510.4
2016-Jan-23 23:34N 35°59' W 005°15'6 5.4
2016-Jan-23 22:32N 35°54' W 005°18'0 0.0
2016-Jan-23 21:32N 35°54' W 005°18'0 0.0
2016-Jan-23 20:31N 35°54' W 005°18'0 0.0
2016-Jan-23 19:31N 35°54' W 005°18'1 1.3
2016-Jan-23 18:33N 35°55' W 005°19'0 0.1
2016-Jan-23 17:33N 35°55' W 005°19'0 0.4
2016-Jan-23 16:31N 35°55' W 005°20'0 0.0
2016-Jan-23 15:33N 35°55' W 005°20'0 0.1
2016-Jan-23 14:33N 35°55' W 005°20'6 6.3
2016-Jan-23 13:33N 35°57' W 005°27'126 8.9
2016-Jan-22 23:26N 36°18' W 008°01'9 9.9
2016-Jan-22 22:32N 36°21' W 008°12'1110.8
2016-Jan-22 21:32N 36°24' W 008°24'1110.7
2016-Jan-22 20:32N 36°26' W 008°37'1010.1
2016-Jan-22 19:32N 36°28' W 008°50'1010.0
2016-Jan-22 18:32N 36°31' W 009°01'10 9.8
2016-Jan-22 17:32N 36°34' W 009°13'21 9.3
2016-Jan-22 15:14N 36°49' W 009°32'710.7
2016-Jan-22 14:32N 36°56' W 009°34'9 8.8
2016-Jan-22 13:29N 37°05' W 009°37'1010.4
2016-Jan-22 12:32N 37°15' W 009°39'9 8.9
2016-Jan-22 11:32N 37°23' W 009°42'1010.1
2016-Jan-22 10:32N 37°33' W 009°45'9 9.1
2016-Jan-22 09:33N 37°42' W 009°47'10 9.8
2016-Jan-22 08:32N 37°52' W 009°50'10 9.9
2016-Jan-22 07:32N 38°01' W 009°53'1010.2
2016-Jan-22 06:32N 38°11' W 009°56'1010.1
2016-Jan-22 05:32N 38°21' W 009°59'9 8.9
2016-Jan-22 04:32N 38°30' W 010°01'9 9.7
2016-Jan-22 03:33N 38°39' W 010°04'10 9.6
2016-Jan-22 02:33N 38°49' W 010°06'1110.5
2016-Jan-22 01:32N 38°59' W 010°06'8 8.6
2016-Jan-22 00:33N 39°08' W 010°05'9 9.2
2016-Jan-21 23:33N 39°16' W 010°00'1010.2
2016-Jan-21 22:32N 39°24' W 009°51'9 9.6
2016-Jan-21 21:33N 39°30' W 009°42'1110.6
2016-Jan-21 20:32N 39°38' W 009°33'9 8.8
2016-Jan-21 19:32N 39°45' W 009°25'10 9.7
2016-Jan-21 18:32N 39°51' W 009°16'10 9.7
2016-Jan-21 17:32N 39°58' W 009°07'10 9.8
2016-Jan-21 16:32N 40°06' W 008°58'7 6.6
2016-Jan-21 15:32N 40°09' W 008°51'0 0.0
2016-Jan-21 14:32N 40°09' W 008°51'0 0.0
2016-Jan-21 13:32N 40°09' W 008°51'0 0.0
2016-Jan-21 12:32N 40°09' W 008°51'0 0.0
2016-Jan-21 11:32N 40°09' W 008°51'0 0.0
2016-Jan-21 10:29N 40°09' W 008°51'0 0.0
2016-Jan-21 09:32N 40°09' W 008°51'0 0.0
2016-Jan-21 08:32N 40°09' W 008°51'0 0.0
2016-Jan-21 07:32N 40°09' W 008°51'0 0.0
2016-Jan-21 06:32N 40°09' W 008°51'0 0.0
2016-Jan-21 05:32N 40°09' W 008°51'0 0.0
2016-Jan-21 04:32N 40°09' W 008°51'0 0.0
2016-Jan-21 03:29N 40°09' W 008°51'0 0.0
2016-Jan-21 02:32N 40°09' W 008°51'0 0.0
2016-Jan-21 01:14N 40°09' W 008°51'0 0.0
2016-Jan-21 00:32N 40°09' W 008°51'0 0.0
2016-Jan-20 23:32N 40°09' W 008°51'0 0.0
2016-Jan-20 22:32N 40°09' W 008°51'0 0.0
2016-Jan-20 21:32N 40°09' W 008°51'0 0.0
2016-Jan-20 20:29N 40°09' W 008°51'0 0.0
2016-Jan-20 19:32N 40°09' W 008°51'0 0.0
2016-Jan-20 18:26N 40°09' W 008°51'0 0.0
2016-Jan-20 17:32N 40°09' W 008°51'0 0.0
2016-Jan-20 16:32N 40°09' W 008°51'0 0.0
2016-Jan-20 13:29N 40°09' W 008°51'0 0.0
2016-Jan-20 12:32N 40°09' W 008°51'0 0.0
2016-Jan-20 11:32N 40°09' W 008°51'0 0.0
2016-Jan-20 10:32N 40°09' W 008°51'0 0.0
2016-Jan-20 09:32N 40°09' W 008°51'0 0.0
2016-Jan-20 08:32N 40°09' W 008°51'0 0.0
2016-Jan-20 07:32N 40°09' W 008°51'0 0.0
2016-Jan-20 02:29N 40°09' W 008°51'0 0.0
2016-Jan-20 01:32N 40°09' W 008°51'0 0.0
2016-Jan-20 00:32N 40°09' W 008°51'0 0.0
2016-Jan-19 23:32N 40°09' W 008°51'0 0.0
2016-Jan-19 22:32N 40°09' W 008°51'0 0.0
2016-Jan-19 21:32N 40°09' W 008°51'0 0.0
2016-Jan-19 20:32N 40°09' W 008°51'0 0.0
2016-Jan-19 19:32N 40°09' W 008°51'0 0.0
2016-Jan-19 18:32N 40°09' W 008°51'0 0.0
2016-Jan-19 17:32N 40°09' W 008°51'0 0.0
2016-Jan-19 16:29N 40°09' W 008°51'0 0.0
2016-Jan-19 15:32N 40°09' W 008°51'0 0.0
2016-Jan-19 14:32N 40°09' W 008°51'0 0.0
2016-Jan-19 13:32N 40°09' W 008°51'0 0.0
2016-Jan-19 12:32N 40°09' W 008°51'0 0.0
2016-Jan-19 11:32N 40°09' W 008°51'0 0.0
2016-Jan-19 08:32N 40°09' W 008°51'0 0.0
2016-Jan-19 07:32N 40°09' W 008°51'0 0.0
2016-Jan-19 06:32N 40°09' W 008°51'0 0.0
2016-Jan-19 05:32N 40°09' W 008°51'0 0.0
2016-Jan-19 04:32N 40°09' W 008°51'0 0.0
2016-Jan-19 03:32N 40°09' W 008°51'0 0.0
2016-Jan-19 02:32N 40°09' W 008°51'0 0.0
2016-Jan-19 01:32N 40°09' W 008°51'0 0.0
2016-Jan-19 00:32N 40°09' W 008°51'0 0.0
2016-Jan-18 23:32N 40°09' W 008°51'0 0.0
2016-Jan-18 22:32N 40°09' W 008°51'0 0.0
2016-Jan-18 21:32N 40°09' W 008°51'0 0.0
2016-Jan-18 20:32N 40°09' W 008°51'0 0.0
2016-Jan-18 19:32N 40°09' W 008°51'0 0.0
2016-Jan-18 18:32N 40°09' W 008°51'0 0.0
2016-Jan-18 17:32N 40°09' W 008°51'0 0.0
2016-Jan-18 16:32N 40°09' W 008°51'0 0.0
2016-Jan-18 15:32N 40°09' W 008°51'0 0.0
2016-Jan-18 14:32N 40°09' W 008°51'0 0.0
2016-Jan-18 13:32N 40°09' W 008°51'0 0.0
2016-Jan-18 12:32N 40°09' W 008°51'0 0.0
2016-Jan-18 11:32N 40°09' W 008°51'0 0.2
2016-Jan-18 10:29N 40°09' W 008°51'5 5.5
2016-Jan-18 09:32N 40°09' W 008°58'8 7.6
2016-Jan-18 08:32N 40°16' W 009°01'1010.1
2016-Jan-18 07:32N 40°26' W 009°06'1010.0
2016-Jan-18 06:32N 40°35' W 009°10'8 8.6
2016-Jan-18 05:33N 40°43' W 009°12'9 9.2
2016-Jan-18 04:33N 40°52' W 009°15'9 9.1
2016-Jan-18 03:33N 41°01' W 009°19'9 9.1
2016-Jan-18 02:33N 41°10' W 009°23'  
Track history (hours):
 
Tides and Currents Weather Stations Pressure Air Temp Water Temp Dewpoint Dewpoint Depression Visibility Wind Speed Wind Dir Waves Ship Positions

Beltdiep

Last reported at 2016-Jan-28 02:23 UTC. Time now 2016-Feb-12 12:04 UTC.
Position N 36°26' E 015°12'.
Warning: this ship's position is 15 days out of date.

Length 107 m; draft 5.6 m.

Type: Cargo ship. MMSI: 246671000.

Date/timePositionNaut miles runAvg speedWind from/ knotsBaromVisibWave heightAir tempDewpointWater temp
2016-Jan-28 02:23N 36°26' E 015°12'910.6
2016-Jan-28 01:33N 36°26' E 015°01'1110.6
2016-Jan-28 00:33N 36°27' E 014°48'1110.7
2016-Jan-27 23:33N 36°29' E 014°35'1111.1
2016-Jan-27 22:31N 36°33' E 014°21'1010.4
2016-Jan-27 21:33N 36°35' E 014°09'1110.9
2016-Jan-27 20:33N 36°38' E 013°56'1110.8
2016-Jan-27 19:33N 36°41' E 013°43'1010.5
2016-Jan-27 18:33N 36°45' E 013°31'1110.6
2016-Jan-27 17:33N 36°48' E 013°18'1110.5
2016-Jan-27 16:33N 36°51' E 013°05'1010.5
2016-Jan-27 15:33N 36°54' E 012°53'1110.7
2016-Jan-27 14:34N 36°58' E 012°41'340 9.7
2016-Jan-26 03:25N 37°19' E 005°35'213 9.8
2016-Jan-25 05:33N 36°50' E 001°10'1110.5
2016-Jan-25 04:33N 36°48' E 000°58'1111.4
2016-Jan-25 03:33N 36°47' E 000°43'1310.9
2016-Jan-25 02:22N 36°45' E 000°28'910.4
2016-Jan-25 01:29N 36°43' E 000°16'1010.2
2016-Jan-25 00:32N 36°41' E 000°05'2510.3
2016-Jan-24 22:04N 36°36' W 000°27'610.5
2016-Jan-24 21:30N 36°35' W 000°34'1010.3
2016-Jan-24 20:33N 36°34' W 000°46'1110.2
2016-Jan-24 19:27N 36°32' W 000°60'1410.6
2016-Jan-24 18:08N 36°30' W 001°17'3810.7
2016-Jan-24 14:32N 36°23' W 002°04'1111.1
2016-Jan-24 13:33N 36°21' W 002°17'14510.4
2016-Jan-23 23:34N 35°59' W 005°15'6 5.4
2016-Jan-23 22:32N 35°54' W 005°18'0 0.0
2016-Jan-23 21:32N 35°54' W 005°18'0 0.0
2016-Jan-23 20:31N 35°54' W 005°18'0 0.0
2016-Jan-23 19:31N 35°54' W 005°18'1 1.3
2016-Jan-23 18:33N 35°55' W 005°19'0 0.1
2016-Jan-23 17:33N 35°55' W 005°19'0 0.4
2016-Jan-23 16:31N 35°55' W 005°20'0 0.0
2016-Jan-23 15:33N 35°55' W 005°20'0 0.1
2016-Jan-23 14:33N 35°55' W 005°20'6 6.3
2016-Jan-23 13:33N 35°57' W 005°27'126 8.9
2016-Jan-22 23:26N 36°18' W 008°01'9 9.9
2016-Jan-22 22:32N 36°21' W 008°12'1110.8
2016-Jan-22 21:32N 36°24' W 008°24'1110.7
2016-Jan-22 20:32N 36°26' W 008°37'1010.1
2016-Jan-22 19:32N 36°28' W 008°50'1010.0
2016-Jan-22 18:32N 36°31' W 009°01'10 9.8
2016-Jan-22 17:32N 36°34' W 009°13'21 9.3
2016-Jan-22 15:14N 36°49' W 009°32'710.7
2016-Jan-22 14:32N 36°56' W 009°34'9 8.8
2016-Jan-22 13:29N 37°05' W 009°37'1010.4
2016-Jan-22 12:32N 37°15' W 009°39'9 8.9
2016-Jan-22 11:32N 37°23' W 009°42'1010.1
2016-Jan-22 10:32N 37°33' W 009°45'9 9.1
2016-Jan-22 09:33N 37°42' W 009°47'10 9.8
2016-Jan-22 08:32N 37°52' W 009°50'10 9.9
2016-Jan-22 07:32N 38°01' W 009°53'1010.2
2016-Jan-22 06:32N 38°11' W 009°56'1010.1
2016-Jan-22 05:32N 38°21' W 009°59'9 8.9
2016-Jan-22 04:32N 38°30' W 010°01'9 9.7
2016-Jan-22 03:33N 38°39' W 010°04'10 9.6
2016-Jan-22 02:33N 38°49' W 010°06'1110.5
2016-Jan-22 01:32N 38°59' W 010°06'8 8.6
2016-Jan-22 00:33N 39°08' W 010°05'9 9.2
2016-Jan-21 23:33N 39°16' W 010°00'1010.2
2016-Jan-21 22:32N 39°24' W 009°51'9 9.6
2016-Jan-21 21:33N 39°30' W 009°42'1110.6
2016-Jan-21 20:32N 39°38' W 009°33'9 8.8
2016-Jan-21 19:32N 39°45' W 009°25'10 9.7
2016-Jan-21 18:32N 39°51' W 009°16'10 9.7
2016-Jan-21 17:32N 39°58' W 009°07'10 9.8
2016-Jan-21 16:32N 40°06' W 008°58'7 6.6
2016-Jan-21 15:32N 40°09' W 008°51'0 0.0
2016-Jan-21 14:32N 40°09' W 008°51'0 0.0
2016-Jan-21 13:32N 40°09' W 008°51'0 0.0
2016-Jan-21 12:32N 40°09' W 008°51'0 0.0
2016-Jan-21 11:32N 40°09' W 008°51'0 0.0
2016-Jan-21 10:29N 40°09' W 008°51'0 0.0
2016-Jan-21 09:32N 40°09' W 008°51'0 0.0
2016-Jan-21 08:32N 40°09' W 008°51'0 0.0
2016-Jan-21 07:32N 40°09' W 008°51'0 0.0
2016-Jan-21 06:32N 40°09' W 008°51'0 0.0
2016-Jan-21 05:32N 40°09' W 008°51'0 0.0
2016-Jan-21 04:32N 40°09' W 008°51'0 0.0
2016-Jan-21 03:29N 40°09' W 008°51'0 0.0
2016-Jan-21 02:32N 40°09' W 008°51'0 0.0
2016-Jan-21 01:14N 40°09' W 008°51'0 0.0
2016-Jan-21 00:32N 40°09' W 008°51'0 0.0
2016-Jan-20 23:32N 40°09' W 008°51'0 0.0
2016-Jan-20 22:32N 40°09' W 008°51'0 0.0
2016-Jan-20 21:32N 40°09' W 008°51'0 0.0
2016-Jan-20 20:29N 40°09' W 008°51'0 0.0
2016-Jan-20 19:32N 40°09' W 008°51'0 0.0
2016-Jan-20 18:26N 40°09' W 008°51'0 0.0
2016-Jan-20 17:32N 40°09' W 008°51'0 0.0
2016-Jan-20 16:32N 40°09' W 008°51'0 0.0
2016-Jan-20 13:29N 40°09' W 008°51'0 0.0
2016-Jan-20 12:32N 40°09' W 008°51'0 0.0
2016-Jan-20 11:32N 40°09' W 008°51'0 0.0
2016-Jan-20 10:32N 40°09' W 008°51'0 0.0
2016-Jan-20 09:32N 40°09' W 008°51'0 0.0
2016-Jan-20 08:32N 40°09' W 008°51'0 0.0
2016-Jan-20 07:32N 40°09' W 008°51'0 0.0
2016-Jan-20 02:29N 40°09' W 008°51'0 0.0
2016-Jan-20 01:32N 40°09' W 008°51'0 0.0
2016-Jan-20 00:32N 40°09' W 008°51'0 0.0
2016-Jan-19 23:32N 40°09' W 008°51'0 0.0
2016-Jan-19 22:32N 40°09' W 008°51'0 0.0
2016-Jan-19 21:32N 40°09' W 008°51'0 0.0
2016-Jan-19 20:32N 40°09' W 008°51'0 0.0
2016-Jan-19 19:32N 40°09' W 008°51'0 0.0
2016-Jan-19 18:32N 40°09' W 008°51'0 0.0
2016-Jan-19 17:32N 40°09' W 008°51'0 0.0
2016-Jan-19 16:29N 40°09' W 008°51'0 0.0
2016-Jan-19 15:32N 40°09' W 008°51'0 0.0
2016-Jan-19 14:32N 40°09' W 008°51'0 0.0
2016-Jan-19 13:32N 40°09' W 008°51'0 0.0
2016-Jan-19 12:32N 40°09' W 008°51'0 0.0
2016-Jan-19 11:32N 40°09' W 008°51'0 0.0
2016-Jan-19 08:32N 40°09' W 008°51'0 0.0
2016-Jan-19 07:32N 40°09' W 008°51'0 0.0
2016-Jan-19 06:32N 40°09' W 008°51'0 0.0
2016-Jan-19 05:32N 40°09' W 008°51'0 0.0
2016-Jan-19 04:32N 40°09' W 008°51'0 0.0
2016-Jan-19 03:32N 40°09' W 008°51'0 0.0
2016-Jan-19 02:32N 40°09' W 008°51'0 0.0
2016-Jan-19 01:32N 40°09' W 008°51'0 0.0
2016-Jan-19 00:32N 40°09' W 008°51'0 0.0
2016-Jan-18 23:32N 40°09' W 008°51'0 0.0
2016-Jan-18 22:32N 40°09' W 008°51'0 0.0
2016-Jan-18 21:32N 40°09' W 008°51'0 0.0
2016-Jan-18 20:32N 40°09' W 008°51'0 0.0
2016-Jan-18 19:32N 40°09' W 008°51'0 0.0
2016-Jan-18 18:32N 40°09' W 008°51'0 0.0
2016-Jan-18 17:32N 40°09' W 008°51'0 0.0
2016-Jan-18 16:32N 40°09' W 008°51'0 0.0
2016-Jan-18 15:32N 40°09' W 008°51'0 0.0
2016-Jan-18 14:32N 40°09' W 008°51'0 0.0
2016-Jan-18 13:32N 40°09' W 008°51'0 0.0
2016-Jan-18 12:32N 40°09' W 008°51'0 0.0
2016-Jan-18 11:32N 40°09' W 008°51'0 0.2
2016-Jan-18 10:29N 40°09' W 008°51'5 5.5
2016-Jan-18 09:32N 40°09' W 008°58'8 7.6
2016-Jan-18 08:32N 40°16' W 009°01'1010.1
2016-Jan-18 07:32N 40°26' W 009°06'1010.0
2016-Jan-18 06:32N 40°35' W 009°10'8 8.6
2016-Jan-18 05:33N 40°43' W 009°12'9 9.2
2016-Jan-18 04:33N 40°52' W 009°15'9 9.1
2016-Jan-18 03:33N 41°01' W 009°19'9 9.1
2016-Jan-18 02:33N 41°10' W 009°23'  

Dump ship's entire track history